sensor_id;sensor_type;location;lat;lon;timestamp;temperature;humidity
66576;SHT31;53428;47.686;16.584;2023-04-01T00:01:40;8.48;91.62
66576;SHT31;53428;47.686;16.584;2023-04-01T00:06:40;8.46;91.02
66576;SHT31;53428;47.686;16.584;2023-04-01T00:11:39;8.55;90.14
66576;SHT31;53428;47.686;16.584;2023-04-01T00:16:39;8.56;90.22
66576;SHT31;53428;47.686;16.584;2023-04-01T00:21:38;8.48;90.42
66576;SHT31;53428;47.686;16.584;2023-04-01T00:26:38;8.63;89.88
66576;SHT31;53428;47.686;16.584;2023-04-01T00:31:37;8.58;90.64
66576;SHT31;53428;47.686;16.584;2023-04-01T00:36:37;8.41;90.92
66576;SHT31;53428;47.686;16.584;2023-04-01T00:41:37;8.37;91.32
66576;SHT31;53428;47.686;16.584;2023-04-01T00:46:37;8.42;91.56
66576;SHT31;53428;47.686;16.584;2023-04-01T00:51:37;9.20;82.76
66576;SHT31;53428;47.686;16.584;2023-04-01T00:56:41;8.77;88.71
66576;SHT31;53428;47.686;16.584;2023-04-01T01:01:42;8.46;90.99
66576;SHT31;53428;47.686;16.584;2023-04-01T01:07:03;8.35;91.24
66576;SHT31;53428;47.686;16.584;2023-04-01T01:12:08;8.28;90.33
66576;SHT31;53428;47.686;16.584;2023-04-01T01:22:52;8.27;89.14
66576;SHT31;53428;47.686;16.584;2023-04-01T01:28:01;8.25;89.03
66576;SHT31;53428;47.686;16.584;2023-04-01T01:38:16;8.60;84.10
66576;SHT31;53428;47.686;16.584;2023-04-01T01:43:21;8.89;81.38
66576;SHT31;53428;47.686;16.584;2023-04-01T01:48:23;8.84;81.22
66576;SHT31;53428;47.686;16.584;2023-04-01T01:53:24;8.81;80.69
66576;SHT31;53428;47.686;16.584;2023-04-01T01:58:42;8.63;80.52
66576;SHT31;53428;47.686;16.584;2023-04-01T02:03:44;8.62;80.38
66576;SHT31;53428;47.686;16.584;2023-04-01T02:08:48;9.01;78.52
66576;SHT31;53428;47.686;16.584;2023-04-01T02:14:15;9.41;76.50
66576;SHT31;53428;47.686;16.584;2023-04-01T02:19:17;9.21;77.20
66576;SHT31;53428;47.686;16.584;2023-04-01T02:24:23;9.23;76.96
66576;SHT31;53428;47.686;16.584;2023-04-01T02:29:25;9.16;77.19
66576;SHT31;53428;47.686;16.584;2023-04-01T02:34:25;9.31;76.63
66576;SHT31;53428;47.686;16.584;2023-04-01T02:39:25;9.07;77.14
66576;SHT31;53428;47.686;16.584;2023-04-01T02:44:25;8.90;78.12
66576;SHT31;53428;47.686;16.584;2023-04-01T02:49:24;8.75;78.24
66576;SHT31;53428;47.686;16.584;2023-04-01T02:54:24;8.84;79.06
66576;SHT31;53428;47.686;16.584;2023-04-01T02:59:23;8.87;77.90
66576;SHT31;53428;47.686;16.584;2023-04-01T03:04:23;8.80;78.16
66576;SHT31;53428;47.686;16.584;2023-04-01T03:09:22;8.70;78.18
66576;SHT31;53428;47.686;16.584;2023-04-01T03:14:22;8.59;79.04
66576;SHT31;53428;47.686;16.584;2023-04-01T03:19:21;8.72;78.52
66576;SHT31;53428;47.686;16.584;2023-04-01T03:24:20;8.63;78.45
66576;SHT31;53428;47.686;16.584;2023-04-01T03:29:20;8.58;78.60
66576;SHT31;53428;47.686;16.584;2023-04-01T03:34:19;8.35;80.16
66576;SHT31;53428;47.686;16.584;2023-04-01T03:39:19;7.69;81.77
66576;SHT31;53428;47.686;16.584;2023-04-01T03:44:18;7.89;81.41
66576;SHT31;53428;47.686;16.584;2023-04-01T03:49:17;7.51;83.59
66576;SHT31;53428;47.686;16.584;2023-04-01T03:54:17;7.21;84.77
66576;SHT31;53428;47.686;16.584;2023-04-01T03:59:19;7.28;85.27
66576;SHT31;53428;47.686;16.584;2023-04-01T04:04:18;7.16;85.79
66576;SHT31;53428;47.686;16.584;2023-04-01T04:09:18;7.00;86.00
66576;SHT31;53428;47.686;16.584;2023-04-01T04:14:17;7.45;83.81
66576;SHT31;53428;47.686;16.584;2023-04-01T04:19:17;7.53;83.67
66576;SHT31;53428;47.686;16.584;2023-04-01T04:24:16;7.25;86.57
66576;SHT31;53428;47.686;16.584;2023-04-01T04:29:15;7.05;87.75
66576;SHT31;53428;47.686;16.584;2023-04-01T04:34:15;6.95;88.11
66576;SHT31;53428;47.686;16.584;2023-04-01T04:39:15;6.60;89.22
66576;SHT31;53428;47.686;16.584;2023-04-01T04:44:14;6.65;89.21
66576;SHT31;53428;47.686;16.584;2023-04-01T04:49:13;6.46;90.27
66576;SHT31;53428;47.686;16.584;2023-04-01T04:54:13;6.45;89.77
66576;SHT31;53428;47.686;16.584;2023-04-01T04:59:12;6.88;87.68
66576;SHT31;53428;47.686;16.584;2023-04-01T05:04:11;6.60;89.89
66576;SHT31;53428;47.686;16.584;2023-04-01T05:09:11;6.42;91.06
66576;SHT31;53428;47.686;16.584;2023-04-01T05:14:16;6.26;91.74
66576;SHT31;53428;47.686;16.584;2023-04-01T05:19:16;6.30;92.29
66576;SHT31;53428;47.686;16.584;2023-04-01T05:24:15;6.18;92.48
66576;SHT31;53428;47.686;16.584;2023-04-01T05:29:14;6.38;91.76
66576;SHT31;53428;47.686;16.584;2023-04-01T05:34:14;6.81;90.09
66576;SHT31;53428;47.686;16.584;2023-04-01T05:39:13;6.90;88.42
66576;SHT31;53428;47.686;16.584;2023-04-01T05:44:12;6.87;89.65
66576;SHT31;53428;47.686;16.584;2023-04-01T05:49:12;7.15;88.57
66576;SHT31;53428;47.686;16.584;2023-04-01T05:54:11;7.15;87.85
66576;SHT31;53428;47.686;16.584;2023-04-01T05:59:11;7.43;85.73
66576;SHT31;53428;47.686;16.584;2023-04-01T06:04:14;7.95;83.27
66576;SHT31;53428;47.686;16.584;2023-04-01T06:09:21;8.55;80.70
66576;SHT31;53428;47.686;16.584;2023-04-01T06:14:40;9.35;79.09
66576;SHT31;53428;47.686;16.584;2023-04-01T06:20:29;9.90;78.26
66576;SHT31;53428;47.686;16.584;2023-04-01T06:31:11;10.29;75.63
66576;SHT31;53428;47.686;16.584;2023-04-01T06:47:21;11.50;73.44
66576;SHT31;53428;47.686;16.584;2023-04-01T06:52:47;11.84;72.54
66576;SHT31;53428;47.686;16.584;2023-04-01T06:57:51;12.68;67.85
66576;SHT31;53428;47.686;16.584;2023-04-01T07:08:27;12.53;65.41
66576;SHT31;53428;47.686;16.584;2023-04-01T07:19:18;12.60;63.96
66576;SHT31;53428;47.686;16.584;2023-04-01T07:24:27;12.65;63.76
66576;SHT31;53428;47.686;16.584;2023-04-01T07:29:28;12.70;63.47
66576;SHT31;53428;47.686;16.584;2023-04-01T07:40:21;12.87;61.95
66576;SHT31;53428;47.686;16.584;2023-04-01T07:56:23;13.19;60.04
66576;SHT31;53428;47.686;16.584;2023-04-01T08:01:47;13.34;60.01
66576;SHT31;53428;47.686;16.584;2023-04-01T08:23:10;13.62;59.28
66576;SHT31;53428;47.686;16.584;2023-04-01T08:28:11;14.14;57.81
66576;SHT31;53428;47.686;16.584;2023-04-01T08:33:28;14.87;56.47
66576;SHT31;53428;47.686;16.584;2023-04-01T08:38:32;14.55;56.65
66576;SHT31;53428;47.686;16.584;2023-04-01T08:54:46;14.44;60.24
66576;SHT31;53428;47.686;16.584;2023-04-01T08:59:59;14.76;56.71
66576;SHT31;53428;47.686;16.584;2023-04-01T10:09:28;15.00;54.42
66576;SHT31;53428;47.686;16.584;2023-04-01T10:31:19;15.66;50.95
66576;SHT31;53428;47.686;16.584;2023-04-01T11:09:36;15.90;55.06
66576;SHT31;53428;47.686;16.584;2023-04-01T11:36:06;17.34;48.19
66576;SHT31;53428;47.686;16.584;2023-04-01T11:46:46;15.85;49.86
66576;SHT31;53428;47.686;16.584;2023-04-01T11:57:46;16.65;49.64
66576;SHT31;53428;47.686;16.584;2023-04-01T12:03:09;17.91;45.10
66576;SHT31;53428;47.686;16.584;2023-04-01T12:13:35;17.87;46.17
66576;SHT31;53428;47.686;16.584;2023-04-01T12:55:48;19.72;42.60
66576;SHT31;53428;47.686;16.584;2023-04-01T13:01:41;20.39;40.70
66576;SHT31;53428;47.686;16.584;2023-04-01T13:06:58;20.85;40.37
66576;SHT31;53428;47.686;16.584;2023-04-01T13:23:03;20.42;40.91
66576;SHT31;53428;47.686;16.584;2023-04-01T13:28:28;20.31;41.32
66576;SHT31;53428;47.686;16.584;2023-04-01T13:44:28;19.77;41.63
66576;SHT31;53428;47.686;16.584;2023-04-01T13:54:45;18.73;43.73
66576;SHT31;53428;47.686;16.584;2023-04-01T14:00:07;18.73;44.31
66576;SHT31;53428;47.686;16.584;2023-04-01T14:11:03;19.66;42.90
66576;SHT31;53428;47.686;16.584;2023-04-01T14:26:56;17.09;46.78
66576;SHT31;53428;47.686;16.584;2023-04-01T14:38:02;17.91;45.66
66576;SHT31;53428;47.686;16.584;2023-04-01T14:42:59;19.11;43.46
66576;SHT31;53428;47.686;16.584;2023-04-01T14:53:44;20.03;43.19
66576;SHT31;53428;47.686;16.584;2023-04-01T14:58:57;18.83;43.65
66576;SHT31;53428;47.686;16.584;2023-04-01T15:04:30;18.18;44.88
66576;SHT31;53428;47.686;16.584;2023-04-01T15:09:37;17.27;46.93
66576;SHT31;53428;47.686;16.584;2023-04-01T15:41:22;15.17;50.94
66576;SHT31;53428;47.686;16.584;2023-04-01T16:07:33;14.55;58.50
66576;SHT31;53428;47.686;16.584;2023-04-01T16:13:47;15.35;56.43
66576;SHT31;53428;47.686;16.584;2023-04-01T16:23:35;15.03;55.55
66576;SHT31;53428;47.686;16.584;2023-04-01T16:29:07;15.00;55.63
66576;SHT31;53428;47.686;16.584;2023-04-01T16:34:16;14.69;56.82
66576;SHT31;53428;47.686;16.584;2023-04-01T16:39:43;14.31;57.62
66576;SHT31;53428;47.686;16.584;2023-04-01T16:50:18;13.86;59.80
66576;SHT31;53428;47.686;16.584;2023-04-01T16:55:21;13.73;60.33
66576;SHT31;53428;47.686;16.584;2023-04-01T17:05:21;13.18;62.30
66576;SHT31;53428;47.686;16.584;2023-04-01T17:15:51;12.94;63.52
66576;SHT31;53428;47.686;16.584;2023-04-01T17:21:05;12.92;63.83
66576;SHT31;53428;47.686;16.584;2023-04-01T17:53:14;12.30;67.47
66576;SHT31;53428;47.686;16.584;2023-04-01T17:58:22;12.28;67.22
66576;SHT31;53428;47.686;16.584;2023-04-01T18:03:54;12.25;67.34
66576;SHT31;53428;47.686;16.584;2023-04-01T18:14:25;12.15;66.71
66576;SHT31;53428;47.686;16.584;2023-04-01T18:30:22;11.92;67.50
66576;SHT31;53428;47.686;16.584;2023-04-01T18:41:15;11.99;66.99
66576;SHT31;53428;47.686;16.584;2023-04-01T18:51:49;11.92;67.17
66576;SHT31;53428;47.686;16.584;2023-04-01T18:57:08;11.85;67.46
66576;SHT31;53428;47.686;16.584;2023-04-01T19:17:50;11.88;67.07
66576;SHT31;53428;47.686;16.584;2023-04-01T19:28:56;11.82;67.12
66576;SHT31;53428;47.686;16.584;2023-04-01T19:34:34;11.84;67.11
66576;SHT31;53428;47.686;16.584;2023-04-01T19:45:32;11.74;67.18
66576;SHT31;53428;47.686;16.584;2023-04-01T19:55:50;11.46;68.47
66576;SHT31;53428;47.686;16.584;2023-04-01T20:00:58;11.44;68.58
66576;SHT31;53428;47.686;16.584;2023-04-01T20:11:35;11.33;68.74
66576;SHT31;53428;47.686;16.584;2023-04-01T20:16:50;11.16;69.42
66576;SHT31;53428;47.686;16.584;2023-04-01T20:22:00;11.18;69.27
66576;SHT31;53428;47.686;16.584;2023-04-01T20:27:25;11.16;69.29
66576;SHT31;53428;47.686;16.584;2023-04-01T20:32:52;11.09;69.42
66576;SHT31;53428;47.686;16.584;2023-04-01T20:48:39;11.08;69.80
66576;SHT31;53428;47.686;16.584;2023-04-01T20:53:58;10.96;70.24
66576;SHT31;53428;47.686;16.584;2023-04-01T21:05:26;10.83;70.97
66576;SHT31;53428;47.686;16.584;2023-04-01T21:53:03;10.93;71.28
66576;SHT31;53428;47.686;16.584;2023-04-01T21:58:42;10.93;71.57
66576;SHT31;53428;47.686;16.584;2023-04-01T22:09:11;10.91;72.20
66576;SHT31;53428;47.686;16.584;2023-04-01T22:14:24;10.86;72.62
66576;SHT31;53428;47.686;16.584;2023-04-01T22:19:42;10.91;72.53
66576;SHT31;53428;47.686;16.584;2023-04-01T22:24:52;10.91;72.39
66576;SHT31;53428;47.686;16.584;2023-04-01T22:35:13;10.75;73.36
66576;SHT31;53428;47.686;16.584;2023-04-01T22:40:35;10.64;74.31
66576;SHT31;53428;47.686;16.584;2023-04-01T22:51:22;10.38;76.04
66576;SHT31;53428;47.686;16.584;2023-04-01T22:56:44;10.18;77.09
66576;SHT31;53428;47.686;16.584;2023-04-01T23:01:55;10.00;78.30
66576;SHT31;53428;47.686;16.584;2023-04-01T23:07:00;9.75;80.22
66576;SHT31;53428;47.686;16.584;2023-04-01T23:12:13;9.72;80.13
66576;SHT31;53428;47.686;16.584;2023-04-01T23:32:50;9.62;80.60
66576;SHT31;53428;47.686;16.584;2023-04-01T23:37:49;9.62;81.00
66576;SHT31;53428;47.686;16.584;2023-04-01T23:42:48;9.51;81.23
66576;SHT31;53428;47.686;16.584;2023-04-01T23:47:48;9.55;81.90
66576;SHT31;53428;47.686;16.584;2023-04-01T23:52:55;9.58;80.97
